Hlavní strana
METAR-TAF:

METAR-TAF

Letiště :

Thomaston-Upson County Airport

Thomaston, Georgie, Spojené státy americké

zeměpisná šířka: 32-57-18N, zeměpisná délka: 084-15-52W, výška: 243 m

Aktuální stav počasí

Zpráva byla vytvořena před 32 minutami, v 10:35 UTC
Bezvětří
Teplota 20°C
Vlhkost vzduchu 78%
Tlak 1023 hPa
Viditelnost: 16.1 km
Jasno

METAR: KOPN 241035Z AUTO 00000KT 10SM CLR 20/16 A3020 RMK AO2

Čas: 07:07 (11:07 UTC)


TAF: chybějící

Stav a předpovědi počasí z více než 4 000 letišť (zprávy METAR a TAF).

Červené a žluté tečky na mapě představují dostupné meteorologické stanice.

Když kurzor umístíte na tečku, zobrazí se název stanice.

Pak kliknutím zobrazíte stav a předpověď počasí.

Chcete-li změnit mapu, kliknutím na zelené tlačítko se znaménkem +mapu přiblížíte, kliknutím na zelené tlačítko se znaménkem – mapu oddálíte a kliknutím na zelené šipky přejdete na sousední mapy.


METAR-TAF: